Time;durP1;ratioP1;P1;durP2;ratioP2;P2;SDS_P1;SDS_P2;PMS_P1;PMS_P2;Temp;Humidity;BMP_temperature;BMP_pressure;BME280_temperature;BME280_humidity;BME280_pressure;Samples;Min_cycle;Max_cycle;Signal;HPM_P1;HPM_P2
2022/08/12 00:42:50;;;;;;;4.25;2.00;;;19.30;99.90;;;;;;5069898;28;20045;-62
2022/08/12 00:45:17;;;;;;;4.05;1.90;;;19.30;99.90;;;;;;5070805;28;20418;-62
2022/08/12 00:47:43;;;;;;;3.55;1.90;;;19.30;99.90;;;;;;5069310;28;20028;-63
2022/08/12 00:50:16;;;;;;;2.45;1.45;;;19.30;99.90;;;;;;5069352;28;20166;-64
2022/08/12 00:52:47;;;;;;;3.65;1.88;;;19.20;99.90;;;;;;5070400;28;20082;-63
2022/08/12 00:55:13;;;;;;;2.97;1.88;;;19.20;99.90;;;;;;5066404;28;20037;-62
2022/08/12 00:57:44;;;;;;;5.55;2.00;;;19.20;99.90;;;;;;5070531;28;20044;-63
2022/08/12 01:00:13;;;;;;;7.05;2.20;;;19.20;99.90;;;;;;5070538;28;20039;-62
2022/08/12 01:02:44;;;;;;;2.72;1.85;;;19.20;99.90;;;;;;5062584;28;20059;-62
2022/08/12 01:13:31;;;;;;;2.55;2.35;;;19.10;99.90;;;;;;5066848;28;20082;-63
2022/08/12 01:16:01;;;;;;;2.88;1.92;;;19.00;99.90;;;;;;5070069;28;20044;-62
2022/08/12 01:18:29;;;;;;;3.70;2.10;;;19.00;99.90;;;;;;5068723;28;20040;-62
2022/08/12 01:21:19;;;;;;;2.95;2.10;;;19.00;99.90;;;;;;5067300;28;20045;-62
2022/08/12 01:24:00;;;;;;;3.08;1.98;;;19.00;99.90;;;;;;5069701;28;20048;-63
2022/08/12 01:26:25;;;;;;;8.60;2.70;;;18.90;99.90;;;;;;5069964;28;20032;-62
2022/08/12 01:28:57;;;;;;;3.78;2.08;;;18.90;99.90;;;;;;5067677;28;20086;-63
2022/08/12 01:31:25;;;;;;;2.83;2.28;;;18.80;99.90;;;;;;5068782;28;20534;-63
2022/08/12 01:34:08;;;;;;;3.58;1.92;;;18.80;99.90;;;;;;5067144;28;20502;-62
2022/08/12 01:36:49;;;;;;;5.45;2.33;;;18.70;99.90;;;;;;5050096;28;20407;-62
2022/08/12 01:39:16;;;;;;;3.88;2.30;;;18.70;99.90;;;;;;5050133;28;20037;-63
2022/08/12 01:41:51;;;;;;;3.92;2.00;;;18.60;99.90;;;;;;5050010;28;20052;-62
2022/08/12 01:44:19;;;;;;;2.63;2.13;;;18.60;99.90;;;;;;5048835;28;20087;-62
2022/08/12 01:46:50;;;;;;;4.15;2.35;;;18.50;99.90;;;;;;5049757;28;20479;-62
2022/08/12 01:49:47;;;;;;;4.30;2.95;;;18.50;99.90;;;;;;5050222;28;20063;-62
2022/08/12 01:52:48;;;;;;;2.38;2.10;;;18.40;99.90;;;;;;5047137;28;20048;-63
2022/08/12 01:55:18;;;;;;;6.35;2.70;;;18.40;99.90;;;;;;5041634;28;20467;-64
2022/08/12 01:58:10;;;;;;;4.32;2.50;;;18.30;99.90;;;;;;5049691;28;20091;-64
2022/08/12 02:00:47;;;;;;;4.35;2.33;;;18.20;99.90;;;;;;5049846;28;20446;-64
2022/08/12 02:12:31;;;;;;;3.25;2.40;;;18.00;99.90;;;;;;5069769;28;20128;-61
2022/08/12 02:15:11;;;;;;;5.22;2.40;;;18.00;99.90;;;;;;5068544;28;20505;-62
2022/08/12 02:18:06;;;;;;;5.88;2.30;;;18.00;99.90;;;;;;5069711;28;20111;-63
2022/08/12 02:20:37;;;;;;;4.45;2.53;;;17.90;99.90;;;;;;5058329;28;20053;-64
2022/08/12 02:23:06;;;;;;;3.70;2.45;;;17.80;99.90;;;;;;5048806;28;20045;-64
2022/08/12 02:25:37;;;;;;;5.43;2.85;;;17.80;99.90;;;;;;5031677;28;20373;-62
2022/08/12 02:28:04;;;;;;;3.58;2.70;;;17.80;99.90;;;;;;5048708;28;20049;-62
2022/08/12 02:30:31;;;;;;;4.90;2.45;;;17.80;99.90;;;;;;5054955;28;20047;-63
2022/08/12 02:33:03;;;;;;;3.33;2.63;;;17.80;99.90;;;;;;5093391;28;20442;-62
2022/08/12 02:35:32;;;;;;;2.78;2.50;;;17.70;99.90;;;;;;5093457;28;20431;-62
2022/08/12 02:38:03;;;;;;;3.08;2.60;;;17.60;99.90;;;;;;5093040;28;20032;-62
2022/08/12 02:40:29;;;;;;;4.82;2.75;;;17.60;99.90;;;;;;5075258;28;20044;-62
2022/08/12 02:42:58;;;;;;;3.78;2.80;;;17.60;99.90;;;;;;5075171;28;20539;-62
2022/08/12 02:45:37;;;;;;;3.28;2.80;;;17.50;99.90;;;;;;5075353;28;20043;-64
2022/08/12 02:48:09;;;;;;;4.50;3.03;;;17.50;99.90;;;;;;5093113;28;20036;-62
2022/08/12 02:50:40;;;;;;;2.95;2.72;;;17.50;99.90;;;;;;5075337;28;20036;-62
2022/08/12 02:53:08;;;;;;;5.38;2.92;;;17.40;99.90;;;;;;5070945;28;20100;-62
2022/08/12 02:55:35;;;;;;;4.32;2.75;;;17.40;99.90;;;;;;5092783;28;20039;-62
2022/08/12 02:58:08;;;;;;;3.55;2.88;;;17.40;99.90;;;;;;5092483;28;20105;-63
2022/08/12 03:00:36;;;;;;;3.65;2.88;;;17.30;99.90;;;;;;5092779;28;20040;-62
2022/08/12 03:03:06;;;;;;;2.92;2.63;;;17.30;99.90;;;;;;5092704;28;20402;-63
2022/08/12 03:05:35;;;;;;;4.25;2.58;;;17.30;99.90;;;;;;5074856;28;20516;-62
2022/08/12 03:08:03;;;;;;;3.92;2.90;;;17.20;99.90;;;;;;5074228;28;20279;-62
2022/08/12 03:10:34;;;;;;;3.10;2.65;;;17.20;99.90;;;;;;5092190;28;20028;-62
2022/08/12 03:13:02;;;;;;;3.63;2.85;;;17.20;99.90;;;;;;5090195;28;20039;-62
2022/08/12 03:15:30;;;;;;;3.28;2.50;;;17.10;99.90;;;;;;5092363;28;20032;-61
2022/08/12 03:18:26;;;;;;;4.90;2.90;;;17.10;99.90;;;;;;5092309;28;20047;-62
2022/08/12 03:20:52;;;;;;;4.05;2.72;;;17.10;99.90;;;;;;5074314;28;20043;-62
2022/08/12 03:23:21;;;;;;;6.68;3.17;;;17.00;99.90;;;;;;5091985;28;20165;-63
2022/08/12 03:25:50;;;;;;;4.70;3.13;;;17.00;99.90;;;;;;5073161;28;20052;-64
2022/08/12 03:31:05;;;;;;;6.90;2.92;;;16.90;99.90;;;;;;5072465;28;20048;-62
2022/08/12 03:33:36;;;;;;;3.88;3.05;;;16.90;99.90;;;;;;5091648;28;20111;-62
2022/08/12 03:36:05;;;;;;;5.00;3.00;;;16.80;99.90;;;;;;5068979;28;20072;-63
2022/08/12 03:38:34;;;;;;;5.45;3.20;;;16.80;99.90;;;;;;5072348;28;20040;-62
2022/08/12 03:41:33;;;;;;;3.22;2.83;;;16.80;99.90;;;;;;5091157;28;20093;-62
2022/08/12 04:00:57;;;;;;;3.72;3.38;;;16.70;99.90;;;;;;5091771;28;20048;-63
2022/08/12 04:06:08;;;;;;;5.53;3.30;;;16.60;99.90;;;;;;5109007;28;20040;-62
2022/08/12 04:08:35;;;;;;;3.85;3.13;;;16.60;99.90;;;;;;5071314;28;20047;-63
2022/08/12 04:13:47;;;;;;;6.00;3.33;;;16.60;99.90;;;;;;5099630;28;20057;-62
2022/08/12 04:16:15;;;;;;;4.40;3.65;;;16.50;99.90;;;;;;5072740;28;20032;-63
2022/08/12 04:18:42;;;;;;;5.45;3.70;;;16.50;99.90;;;;;;5091155;28;20088;-62
2022/08/12 04:21:11;;;;;;;3.97;3.47;;;16.50;99.90;;;;;;5091472;28;20456;-62
2022/08/12 04:23:43;;;;;;;5.97;3.65;;;16.50;99.90;;;;;;5086798;28;20437;-62
2022/08/12 04:26:09;;;;;;;;;;;16.50;99.90;;;;;;5071816;28;20040;-64
2022/08/12 04:28:35;;;;;;;4.43;3.70;;;16.50;99.90;;;;;;5090921;28;19916;-62
2022/08/12 04:31:01;;;;;;;5.13;4.00;;;16.50;99.90;;;;;;5072446;28;20807;-62
2022/08/12 04:33:26;;;;;;;5.75;3.72;;;16.50;99.90;;;;;;5090078;28;20040;-62
2022/08/12 04:35:53;;;;;;;6.32;3.45;;;16.50;99.90;;;;;;5090953;28;20036;-62
2022/08/12 04:38:20;;;;;;;5.35;3.63;;;16.60;99.90;;;;;;5090968;28;20616;-62
2022/08/12 04:40:46;;;;;;;5.20;3.67;;;16.60;99.90;;;;;;5098100;28;20512;-62
2022/08/12 04:43:12;;;;;;;4.00;3.60;;;16.60;99.90;;;;;;5100500;28;20428;-62
2022/08/12 04:45:38;;;;;;;6.28;3.60;;;16.60;99.90;;;;;;5069678;28;20052;-62
2022/08/12 04:48:05;;;;;;;4.70;3.47;;;16.70;99.90;;;;;;5072704;28;20034;-62
2022/08/12 04:50:32;;;;;;;6.50;3.55;;;16.70;99.90;;;;;;5072512;28;20553;-63
2022/08/12 04:53:00;;;;;;;5.60;3.90;;;16.70;99.90;;;;;;5072425;28;20088;-63
2022/08/12 04:55:27;;;;;;;5.45;3.67;;;16.70;99.90;;;;;;5072482;28;20084;-62
2022/08/12 04:57:54;;;;;;;6.40;3.58;;;16.80;99.90;;;;;;5090583;28;20039;-62
2022/08/12 05:00:20;;;;;;;4.07;3.55;;;16.90;99.90;;;;;;5090596;28;20032;-63
2022/08/12 05:02:46;;;;;;;4.43;3.50;;;16.90;99.90;;;;;;5071994;28;20118;-62
2022/08/12 05:05:19;;;;;;;6.78;4.13;;;17.00;99.90;;;;;;5104224;28;20348;-62
2022/08/12 05:07:48;;;;;;;5.78;3.90;;;17.00;99.90;;;;;;5088015;28;20052;-63
2022/08/12 05:10:15;;;;;;;6.45;3.83;;;17.10;99.90;;;;;;5090457;28;20119;-62
2022/08/12 05:12:44;;;;;;;6.57;3.90;;;17.10;99.90;;;;;;5081300;28;20493;-63
2022/08/12 05:15:13;;;;;;;8.52;4.15;;;17.10;99.90;;;;;;5072055;28;20040;-63
2022/08/12 05:17:43;;;;;;;4.82;3.90;;;17.20;99.90;;;;;;5086594;28;20509;-64
2022/08/12 05:20:10;;;;;;;5.65;3.85;;;17.30;99.90;;;;;;5068970;28;20036;-63
2022/08/12 05:22:36;;;;;;;5.32;3.72;;;17.30;99.90;;;;;;5072201;28;20044;-61
2022/08/12 05:25:02;;;;;;;5.95;4.13;;;17.40;99.90;;;;;;5102824;28;20115;-60
2022/08/12 05:27:28;;;;;;;5.55;3.85;;;17.50;99.90;;;;;;5087832;28;20173;-62
2022/08/12 05:29:53;;;;;;;7.13;4.00;;;17.60;99.90;;;;;;5088666;28;20053;-62
2022/08/12 05:32:19;;;;;;;7.68;4.40;;;17.60;99.90;;;;;;5081418;28;20059;-62
2022/08/12 05:34:49;;;;;;;6.32;3.88;;;17.70;99.90;;;;;;5071637;28;20052;-62
2022/08/12 05:37:15;;;;;;;7.35;4.13;;;17.80;99.90;;;;;;5089881;28;20044;-62
2022/08/12 05:39:41;;;;;;;8.48;4.32;;;17.90;99.90;;;;;;5097386;28;20478;-62
2022/08/12 05:42:10;;;;;;;9.63;4.50;;;18.00;99.90;;;;;;5090549;28;20127;-63
2022/08/12 05:44:35;;;;;;;6.10;3.95;;;18.00;99.90;;;;;;5090484;28;20056;-61
2022/08/12 05:47:01;;;;;;;8.40;4.70;;;18.10;99.90;;;;;;5072111;28;20125;-63
2022/08/12 05:49:28;;;;;;;7.50;3.97;;;18.30;99.90;;;;;;5090641;28;20398;-62
2022/08/12 05:51:55;;;;;;;7.60;4.35;;;18.40;99.90;;;;;;5090426;28;20039;-62
2022/08/12 05:54:20;;;;;;;4.40;3.90;;;18.50;99.90;;;;;;5090382;28;20036;-62
2022/08/12 05:56:47;;;;;;;6.15;4.05;;;18.60;99.90;;;;;;5071659;28;20047;-61
2022/08/12 05:59:12;;;;;;;6.05;4.05;;;18.70;99.90;;;;;;5079661;28;20046;-62
2022/08/12 06:01:39;;;;;;;6.05;4.25;;;18.80;99.90;;;;;;5088924;28;20058;-61
2022/08/12 06:04:05;;;;;;;7.72;4.07;;;18.90;99.90;;;;;;5091448;28;20036;-62
2022/08/12 06:06:38;;;;;;;8.38;3.90;;;19.10;99.90;;;;;;5094043;28;20066;-62
2022/08/12 06:09:03;;;;;;;6.25;3.72;;;19.20;99.90;;;;;;5093983;28;20436;-62
2022/08/12 06:11:29;;;;;;;5.65;4.20;;;19.40;99.90;;;;;;5094067;28;20048;-62
2022/08/12 06:13:57;;;;;;;10.10;4.20;;;19.50;99.90;;;;;;5075862;28;21164;-61
2022/08/12 06:16:23;;;;;;;11.43;4.90;;;19.70;99.90;;;;;;5094054;28;20421;-62
2022/08/12 06:18:49;;;;;;;5.95;4.40;;;19.70;99.90;;;;;;5093297;28;20039;-64
2022/08/12 06:21:18;;;;;;;5.38;3.95;;;19.90;99.90;;;;;;5076062;28;20042;-62
2022/08/12 06:23:44;;;;;;;10.88;3.92;;;20.00;99.90;;;;;;5093598;28;20048;-64
2022/08/12 06:26:11;;;;;;;4.82;3.85;;;20.20;99.90;;;;;;5075714;28;20470;-62
2022/08/12 06:28:49;;;;;;;5.18;4.45;;;20.30;99.90;;;;;;5075210;28;20123;-62
2022/08/12 06:31:19;;;;;;;5.82;3.80;;;20.50;99.90;;;;;;5072111;28;20049;-62
2022/08/12 06:33:47;;;;;;;7.07;3.67;;;20.60;99.90;;;;;;5071928;28;20059;-62
2022/08/12 06:36:15;;;;;;;7.43;4.00;;;20.80;99.90;;;;;;5065615;28;20103;-62
2022/08/12 06:38:44;;;;;;;4.30;3.55;;;20.90;99.90;;;;;;5060974;28;20132;-62
2022/08/12 06:43:55;;;;;;;4.53;3.47;;;21.20;99.90;;;;;;5065974;28;20487;-63
2022/08/12 06:46:22;;;;;;;7.43;3.90;;;21.30;99.90;;;;;;5073014;28;20120;-63
2022/08/12 06:48:49;;;;;;;6.20;3.40;;;21.40;99.90;;;;;;5071224;28;20071;-63
2022/08/12 06:51:16;;;;;;;7.07;3.50;;;21.60;99.90;;;;;;5061771;28;20082;-62
2022/08/12 06:53:42;;;;;;;5.43;3.72;;;21.80;99.90;;;;;;5068473;28;20129;-62
2022/08/12 06:56:08;;;;;;;6.82;3.30;;;21.90;99.90;;;;;;5063806;28;20076;-64
2022/08/12 06:58:38;;;;;;;5.13;3.10;;;22.00;99.90;;;;;;5071238;28;20055;-62
2022/08/12 07:01:05;;;;;;;10.48;3.88;;;22.20;99.90;;;;;;5072148;28;20133;-63
2022/08/12 07:03:31;;;;;;;7.03;3.30;;;22.30;99.90;;;;;;5070548;28;20052;-63
2022/08/12 07:06:02;;;;;;;5.55;3.20;;;22.40;99.90;;;;;;5072217;28;20033;-63
2022/08/12 07:08:33;;;;;;;5.43;3.38;;;22.60;99.90;;;;;;5069622;28;20082;-63
2022/08/12 07:11:02;;;;;;;5.95;3.22;;;22.70;99.90;;;;;;5070848;28;20032;-63
2022/08/12 07:13:42;;;;;;;6.35;3.42;;;22.80;99.90;;;;;;5072540;28;20041;-62
2022/08/12 07:16:10;;;;;;;3.35;2.65;;;22.90;99.90;;;;;;5070955;28;20040;-64
2022/08/12 07:18:37;;;;;;;5.03;2.80;;;23.10;99.90;;;;;;5071295;28;20065;-62
2022/08/12 07:21:05;;;;;;;4.05;2.65;;;23.20;99.90;;;;;;5069047;28;20032;-63
2022/08/12 07:23:33;;;;;;;3.42;2.60;;;23.40;99.90;;;;;;5072378;28;20067;-63
2022/08/12 07:26:02;;;;;;;4.60;2.92;;;23.50;99.90;;;;;;5070897;28;20032;-63
2022/08/12 07:28:32;;;;;;;6.40;3.00;;;23.70;99.90;;;;;;5072345;28;20047;-62
2022/08/12 07:30:58;;;;;;;4.10;3.15;;;23.80;99.90;;;;;;5074724;28;20040;-62
2022/08/12 07:33:27;;;;;;;5.95;2.60;;;23.90;99.90;;;;;;5074546;28;20082;-63
2022/08/12 07:35:55;;;;;;;4.72;2.50;;;24.10;99.90;;;;;;5092465;28;20462;-62
2022/08/12 07:38:42;;;;;;;4.07;3.08;;;24.20;99.90;;;;;;5073884;28;20040;-63
2022/08/12 07:41:27;;;;;;;6.85;2.92;;;24.30;99.60;;;;;;5074179;28;20045;-63
2022/08/12 07:44:05;;;;;;;4.40;2.40;;;24.50;99.50;;;;;;5092314;28;20114;-63
2022/08/12 07:46:37;;;;;;;3.97;2.60;;;24.50;99.20;;;;;;5092379;28;20047;-62
2022/08/12 07:49:08;;;;;;;;;;;24.60;98.60;;;;;;5089964;28;20092;-63
2022/08/12 07:51:34;;;;;;;3.92;2.50;;;24.80;98.60;;;;;;5091495;28;19916;-63
2022/08/12 07:54:01;;;;;;;4.28;2.20;;;24.80;98.60;;;;;;5088424;28;20035;-63
2022/08/12 07:56:27;;;;;;;6.15;2.90;;;25.00;98.30;;;;;;5106092;28;20040;-63
2022/08/12 07:58:53;;;;;;;5.88;2.85;;;25.10;97.90;;;;;;5091611;28;20410;-62
2022/08/12 08:01:21;;;;;;;7.47;2.47;;;25.20;97.50;;;;;;5091348;28;20398;-63
2022/08/12 08:06:39;;;;;;;3.03;2.20;;;25.40;96.80;;;;;;5073473;28;20055;-63
2022/08/12 08:09:05;;;;;;;5.57;2.15;;;25.60;96.40;;;;;;5091571;28;20035;-63
2022/08/12 08:14:15;;;;;;;3.50;2.22;;;25.90;96.10;;;;;;5092581;28;20036;-63
2022/08/12 08:16:41;;;;;;;4.70;2.00;;;26.00;95.90;;;;;;5091443;28;20043;-63
2022/08/12 08:19:14;;;;;;;2.17;1.80;;;26.20;96.20;;;;;;5073096;28;20036;-63
2022/08/12 08:21:40;;;;;;;4.55;2.08;;;26.30;95.40;;;;;;5072064;28;20040;-62
2022/08/12 08:24:15;;;;;;;3.30;1.95;;;26.50;95.20;;;;;;5089612;28;20039;-64
2022/08/12 08:26:47;;;;;;;4.82;2.33;;;26.60;95.00;;;;;;5100398;28;20028;-63
2022/08/12 08:29:14;;;;;;;8.10;2.17;;;26.80;94.60;;;;;;5091437;28;20040;-63
2022/08/12 08:31:42;;;;;;;4.10;2.03;;;26.90;94.50;;;;;;5098320;28;20051;-63
2022/08/12 08:34:12;;;;;;;3.05;2.35;;;27.00;93.90;;;;;;5091054;28;20081;-63
2022/08/12 08:36:39;;;;;;;5.50;2.20;;;27.20;93.50;;;;;;5074463;28;20032;-63
2022/08/12 08:39:06;;;;;;;2.95;1.90;;;27.30;93.70;;;;;;5111704;28;20054;-63
2022/08/12 08:44:16;;;;;;;7.18;2.00;;;27.70;93.60;;;;;;5111598;28;20390;-63
2022/08/12 08:46:43;;;;;;;2.78;1.88;;;27.90;93.20;;;;;;5092498;28;20032;-63
2022/08/12 08:49:10;;;;;;;4.10;1.90;;;28.00;92.80;;;;;;5091279;28;20043;-62
2022/08/12 08:51:37;;;;;;;3.13;1.65;;;28.10;92.30;;;;;;5092321;28;20080;-63
2022/08/12 08:54:05;;;;;;;5.53;1.95;;;28.30;92.00;;;;;;5073190;28;20433;-63
2022/08/12 08:56:32;;;;;;;4.93;2.05;;;28.40;91.60;;;;;;5090575;28;20036;-62
2022/08/12 08:58:58;;;;;;;6.18;2.70;;;28.50;91.70;;;;;;5072719;28;20455;-63
2022/08/12 09:01:25;;;;;;;4.25;2.47;;;28.60;91.30;;;;;;5090815;28;20043;-63
2022/08/12 09:03:51;;;;;;;4.88;2.17;;;28.80;91.30;;;;;;5090800;28;20103;-63
2022/08/12 09:06:19;;;;;;;5.00;2.20;;;29.00;90.90;;;;;;5090448;28;20044;-64
2022/08/12 09:08:45;;;;;;;6.43;2.28;;;29.10;91.30;;;;;;5090186;28;20091;-63
2022/08/12 09:13:55;;;;;;;8.55;2.30;;;29.40;90.70;;;;;;5072504;28;20085;-62
2022/08/12 09:16:20;;;;;;;3.05;1.90;;;29.40;90.10;;;;;;5072573;28;20073;-63
2022/08/12 09:18:47;;;;;;;7.35;2.00;;;29.60;89.80;;;;;;5089970;28;20482;-63
2022/08/12 09:21:13;;;;;;;5.05;1.95;;;29.60;89.80;;;;;;5090791;28;20524;-64
2022/08/12 09:23:39;;;;;;;5.30;2.30;;;29.80;89.80;;;;;;5090601;28;20051;-63
2022/08/12 09:26:08;;;;;;;5.70;2.30;;;29.90;88.60;;;;;;5090874;28;20044;-62
2022/08/12 09:28:34;;;;;;;2.60;2.00;;;30.00;87.10;;;;;;5072149;28;20494;-63
2022/08/12 09:31:00;;;;;;;7.20;2.10;;;30.20;87.30;;;;;;5090367;28;20391;-63
2022/08/12 09:33:32;;;;;;;2.75;2.15;;;30.30;86.10;;;;;;5072345;28;20472;-63
2022/08/12 09:35:59;;;;;;;4.82;2.20;;;30.50;85.30;;;;;;5069583;28;20509;-63
2022/08/12 09:38:27;;;;;;;3.15;1.80;;;30.60;85.40;;;;;;5090595;28;20043;-64
2022/08/12 09:40:53;;;;;;;5.18;2.10;;;30.70;84.90;;;;;;5073872;28;20039;-63
2022/08/12 09:46:02;;;;;;;5.00;2.25;;;31.00;82.90;;;;;;5075699;28;20525;-63
2022/08/12 09:48:31;;;;;;;7.30;1.90;;;31.20;81.90;;;;;;5076017;28;20079;-64
2022/08/12 09:50:57;;;;;;;3.35;1.92;;;31.30;80.80;;;;;;5087313;28;20893;-63
2022/08/12 09:53:24;;;;;;;3.03;1.60;;;31.40;81.00;;;;;;5093742;28;20036;-63
2022/08/12 09:55:55;;;;;;;5.18;1.83;;;31.60;79.50;;;;;;5093839;28;20030;-64
2022/08/12 09:58:33;;;;;;;4.10;1.80;;;31.70;78.80;;;;;;5093491;28;20088;-63
2022/08/12 10:01:01;;;;;;;3.30;1.95;;;31.70;76.80;;;;;;5090630;28;20059;-64
2022/08/12 10:03:28;;;;;;;2.78;1.90;;;31.80;76.00;;;;;;5091297;28;20040;-64
2022/08/12 10:05:55;;;;;;;3.97;2.03;;;32.00;74.60;;;;;;5074323;28;20147;-63
2022/08/12 10:08:22;;;;;;;4.22;2.15;;;32.20;75.20;;;;;;5093234;28;20051;-63
2022/08/12 10:13:41;;;;;;;4.53;2.03;;;32.30;73.80;;;;;;5089091;28;20047;-65
2022/08/12 10:16:11;;;;;;;4.82;1.88;;;32.40;74.10;;;;;;5094359;28;20067;-63
2022/08/12 10:18:43;;;;;;;3.00;1.88;;;32.70;73.20;;;;;;5083066;28;20035;-65
2022/08/12 10:21:18;;;;;;;3.60;1.60;;;32.70;71.40;;;;;;5104513;28;20508;-63
2022/08/12 10:23:45;;;;;;;4.05;1.90;;;32.70;70.10;;;;;;5105130;28;20114;-63
2022/08/12 10:31:44;;;;;;;3.08;1.58;;;33.20;68.80;;;;;;5072929;28;20066;-64
2022/08/12 10:34:12;;;;;;;3.60;1.40;;;33.20;67.00;;;;;;5074429;28;20044;-63
2022/08/12 10:36:39;;;;;;;3.78;1.80;;;33.20;66.70;;;;;;5093352;28;20460;-63
2022/08/12 10:39:08;;;;;;;2.10;1.30;;;33.20;65.80;;;;;;5089241;28;20135;-63
2022/08/12 10:44:19;;;;;;;3.20;1.60;;;33.40;64.80;;;;;;5092912;28;20173;-63
2022/08/12 10:46:45;;;;;;;2.97;1.50;;;33.40;65.60;;;;;;5072684;28;20047;-64
2022/08/12 10:49:11;;;;;;;2.75;1.45;;;33.40;65.60;;;;;;5088117;28;20157;-64
2022/08/12 10:51:38;;;;;;;2.13;1.40;;;33.40;65.30;;;;;;5091978;28;20093;-63
2022/08/12 10:54:04;;;;;;;4.20;1.33;;;33.40;63.60;;;;;;5070856;28;20036;-65
2022/08/12 10:56:33;;;;;;;3.40;1.30;;;33.30;62.00;;;;;;5083674;28;20125;-64
2022/08/12 10:58:59;;;;;;;5.18;1.58;;;33.30;62.30;;;;;;5063719;28;20495;-63
2022/08/12 11:01:26;;;;;;;3.72;1.63;;;33.40;62.90;;;;;;5083093;28;20035;-64
2022/08/12 11:03:52;;;;;;;3.78;1.50;;;33.40;64.00;;;;;;5080472;28;20047;-64
2022/08/12 11:06:20;;;;;;;2.75;1.40;;;33.50;63.80;;;;;;5085056;28;20405;-65
2022/08/12 11:08:46;;;;;;;3.53;1.45;;;33.50;62.60;;;;;;5085151;28;20059;-63
2022/08/12 11:11:16;;;;;;;2.15;1.45;;;33.40;62.50;;;;;;5065813;28;20055;-64
2022/08/12 11:13:45;;;;;;;2.85;1.38;;;33.40;61.20;;;;;;5065934;28;20044;-62
2022/08/12 11:16:12;;;;;;;2.90;1.63;;;33.30;61.10;;;;;;5064266;28;20044;-64
2022/08/12 11:18:39;;;;;;;2.75;1.25;;;33.30;62.60;;;;;;5064836;28;20044;-64
2022/08/12 11:21:05;;;;;;;6.45;2.20;;;33.40;62.00;;;;;;5085671;28;20784;-63
2022/08/12 11:23:31;;;;;;;3.72;1.42;;;33.30;61.50;;;;;;5061315;28;20142;-63
2022/08/12 11:25:56;;;;;;;2.97;1.50;;;33.20;61.60;;;;;;5092943;28;20135;-63
2022/08/12 11:28:22;;;;;;;1.52;1.40;;;33.30;61.80;;;;;;5091618;28;20051;-63
2022/08/12 11:30:49;;;;;;;4.85;1.42;;;33.20;60.90;;;;;;5073981;28;20044;-63
2022/08/12 11:33:14;;;;;;;1.77;1.63;;;33.10;62.00;;;;;;5082922;28;20044;-63
2022/08/12 11:35:43;;;;;;;5.97;2.05;;;33.20;62.70;;;;;;5087964;28;20032;-64
2022/08/12 11:38:09;;;;;;;2.15;1.30;;;33.20;62.50;;;;;;5084569;28;20493;-64
2022/08/12 11:40:36;;;;;;;2.30;1.60;;;33.20;62.70;;;;;;5056517;28;20047;-63
2022/08/12 11:43:02;;;;;;;3.50;1.98;;;33.30;62.60;;;;;;5067778;28;20047;-63
2022/08/12 11:45:28;;;;;;;2.42;1.50;;;33.20;60.40;;;;;;5089024;28;20031;-63
2022/08/12 11:47:55;;;;;;;3.20;1.60;;;33.00;60.70;;;;;;5085574;28;20039;-64
2022/08/12 11:50:22;;;;;;;5.53;1.83;;;33.00;61.40;;;;;;5091584;28;20094;-62
2022/08/12 11:52:49;;;;;;;4.75;1.67;;;33.00;60.50;;;;;;5071924;28;20039;-64
2022/08/12 11:55:15;;;;;;;2.85;1.55;;;32.80;60.60;;;;;;5071165;28;20071;-64
2022/08/12 11:57:55;;;;;;;3.65;1.80;;;32.70;60.90;;;;;;5091757;28;20070;-64
2022/08/12 12:00:21;;;;;;;2.00;1.50;;;32.60;61.00;;;;;;5090704;28;20036;-63
2022/08/12 12:02:47;;;;;;;4.28;1.50;;;32.50;60.80;;;;;;5083417;28;20402;-63
2022/08/12 12:05:15;;;;;;;4.32;1.73;;;32.50;61.10;;;;;;5090899;28;20047;-64
2022/08/12 12:07:42;;;;;;;3.58;1.52;;;32.50;61.10;;;;;;5091238;28;20520;-63
2022/08/12 12:10:10;;;;;;;2.20;1.60;;;32.40;61.00;;;;;;5072883;28;20050;-63
2022/08/12 12:12:36;;;;;;;6.38;1.70;;;32.40;61.70;;;;;;5072610;28;20127;-63
2022/08/12 12:15:03;;;;;;;3.25;1.50;;;32.40;61.20;;;;;;5089353;28;20036;-63
2022/08/12 12:17:29;;;;;;;4.72;1.80;;;32.40;61.60;;;;;;5090797;28;20449;-63
2022/08/12 12:19:55;;;;;;;3.70;1.50;;;32.30;60.70;;;;;;5090434;28;20123;-63
2022/08/12 12:22:21;;;;;;;3.67;1.73;;;32.20;60.00;;;;;;5089344;28;20046;-63
2022/08/12 12:24:50;;;;;;;3.03;1.55;;;32.10;60.60;;;;;;5090228;28;20085;-63
2022/08/12 12:27:21;;;;;;;3.75;1.60;;;32.10;60.60;;;;;;5094577;28;20088;-62
2022/08/12 12:29:47;;;;;;;;;;;32.00;61.40;;;;;;5111849;28;20038;-63
2022/08/12 12:32:13;;;;;;;3.80;1.88;;;32.00;61.30;;;;;;5085323;28;19923;-63
2022/08/12 12:34:39;;;;;;;3.30;1.60;;;31.90;61.40;;;;;;5091696;28;20039;-63
2022/08/12 12:37:05;;;;;;;3.63;2.03;;;31.90;62.00;;;;;;5076780;28;20526;-63
2022/08/12 12:39:30;;;;;;;4.30;2.17;;;31.90;61.30;;;;;;5090765;28;20044;-63
2022/08/12 12:41:56;;;;;;;3.67;1.80;;;31.90;61.10;;;;;;5090783;28;20028;-62
2022/08/12 12:44:21;;;;;;;4.63;2.30;;;31.80;61.30;;;;;;5072918;28;20039;-63
2022/08/12 12:46:47;;;;;;;4.25;1.80;;;31.80;61.80;;;;;;5080285;28;20044;-63
2022/08/12 12:49:13;;;;;;;3.05;2.00;;;31.70;62.30;;;;;;5090671;28;20040;-63
2022/08/12 12:51:39;;;;;;;2.97;1.63;;;31.70;61.80;;;;;;5073123;28;20102;-64
2022/08/12 12:54:05;;;;;;;2.28;1.80;;;31.70;62.30;;;;;;5090629;28;20390;-62
2022/08/12 12:56:30;;;;;;;5.65;1.70;;;31.60;62.90;;;;;;5072814;28;20390;-63
2022/08/12 12:58:56;;;;;;;2.10;1.85;;;31.60;62.00;;;;;;5090203;28;20046;-63
2022/08/12 13:01:26;;;;;;;3.67;1.70;;;31.50;62.40;;;;;;5090707;28;20032;-63
2022/08/12 13:03:58;;;;;;;1.98;1.63;;;31.40;61.60;;;;;;5090495;28;20513;-62
2022/08/12 13:06:28;;;;;;;2.38;1.60;;;31.50;62.40;;;;;;5090592;28;20040;-63
2022/08/12 13:08:55;;;;;;;2.63;1.58;;;31.50;60.80;;;;;;5090378;28;20028;-63
2022/08/12 13:11:21;;;;;;;2.35;1.92;;;31.50;61.70;;;;;;5093484;28;20126;-63
2022/08/12 13:13:52;;;;;;;3.45;1.45;;;31.40;61.30;;;;;;5092625;28;20035;-64
2022/08/12 13:16:21;;;;;;;5.03;1.90;;;31.40;61.00;;;;;;5086935;28;20039;-64
2022/08/12 13:18:51;;;;;;;2.60;1.48;;;31.30;60.40;;;;;;5086169;28;20052;-63
2022/08/12 13:21:17;;;;;;;2.53;1.65;;;31.30;61.50;;;;;;5069042;28;20040;-64
2022/08/12 13:23:47;;;;;;;2.67;1.73;;;31.20;60.70;;;;;;5098897;28;20035;-63
2022/08/12 13:26:17;;;;;;;4.72;1.73;;;31.10;60.80;;;;;;5066175;28;20476;-65
2022/08/12 13:28:44;;;;;;;5.10;2.05;;;31.00;61.70;;;;;;5071334;28;20043;-64
2022/08/12 13:31:11;;;;;;;3.35;1.70;;;31.00;60.40;;;;;;5086462;28;20495;-63
2022/08/12 13:33:41;;;;;;;5.57;1.77;;;31.00;60.00;;;;;;5070465;28;20043;-64
2022/08/12 13:36:07;;;;;;;1.85;1.65;;;31.00;60.50;;;;;;5086154;28;20542;-64
2022/08/12 13:38:45;;;;;;;3.55;1.60;;;30.90;60.20;;;;;;5065874;28;20036;-64
2022/08/12 13:41:32;;;;;;;5.38;2.00;;;30.90;60.40;;;;;;5076440;28;20125;-64
2022/08/12 13:43:59;;;;;;;2.17;1.70;;;30.90;60.10;;;;;;5089392;28;20040;-64
2022/08/12 13:46:24;;;;;;;4.47;2.20;;;30.90;59.90;;;;;;5071657;28;20138;-64
2022/08/12 13:48:53;;;;;;;3.92;1.80;;;30.90;59.20;;;;;;5089683;28;20068;-64
2022/08/12 13:51:19;;;;;;;5.57;1.73;;;30.90;59.40;;;;;;5089763;28;20038;-64
2022/08/12 13:53:45;;;;;;;5.53;1.85;;;30.80;59.60;;;;;;5077350;28;20070;-64
2022/08/12 13:56:10;;;;;;;3.17;2.08;;;30.80;60.00;;;;;;5075261;28;20052;-64
2022/08/12 13:58:50;;;;;;;3.30;1.80;;;30.80;59.60;;;;;;5097873;28;20039;-64
2022/08/12 14:01:19;;;;;;;4.63;1.90;;;30.80;59.20;;;;;;5070760;28;20105;-64
2022/08/12 14:03:45;;;;;;;2.10;1.67;;;30.70;59.20;;;;;;5091376;28;20035;-64
2022/08/12 14:06:11;;;;;;;2.53;1.50;;;30.80;59.80;;;;;;5101494;28;20139;-64
2022/08/12 14:08:38;;;;;;;2.92;1.85;;;30.80;59.50;;;;;;5089608;28;20355;-64
2022/08/12 14:11:03;;;;;;;4.68;1.73;;;30.80;59.10;;;;;;5073636;28;20451;-64
2022/08/12 14:13:31;;;;;;;8.65;1.73;;;30.90;59.50;;;;;;5071304;28;20115;-64
2022/08/12 14:16:01;;;;;;;4.97;1.80;;;31.00;59.90;;;;;;5074730;28;20393;-64
2022/08/12 14:18:31;;;;;;;3.03;1.67;;;31.10;60.00;;;;;;5096118;28;20042;-64
2022/08/12 14:21:03;;;;;;;7.90;2.10;;;31.10;60.20;;;;;;5089219;28;20486;-64
2022/08/12 14:23:31;;;;;;;;;;;31.10;60.00;;;;;;5090112;28;20500;-64
2022/08/12 14:25:58;;;;;;;3.83;1.80;;;31.10;60.00;;;;;;5072162;28;19916;-64
2022/08/12 14:28:24;;;;;;;3.88;1.85;;;31.00;60.30;;;;;;5075536;28;20044;-63
2022/08/12 14:31:01;;;;;;;4.38;2.20;;;31.00;60.30;;;;;;5109035;28;20500;-64
2022/08/12 14:33:32;;;;;;;4.28;1.85;;;31.00;59.80;;;;;;5075117;28;20048;-64
2022/08/12 14:36:00;;;;;;;4.03;1.95;;;30.90;59.60;;;;;;5095215;28;21696;-65
2022/08/12 14:38:28;;;;;;;5.53;2.00;;;30.80;60.10;;;;;;5091642;28;20071;-64
2022/08/12 14:40:57;;;;;;;4.03;2.00;;;30.80;60.00;;;;;;5095665;28;20466;-64
2022/08/12 14:43:26;;;;;;;5.85;2.45;;;30.80;60.10;;;;;;5098018;28;20071;-65
2022/08/12 14:45:53;;;;;;;3.97;1.90;;;30.80;59.70;;;;;;5093335;28;20036;-64
2022/08/12 14:48:19;;;;;;;3.35;2.17;;;30.80;59.50;;;;;;5080430;28;20126;-64